createdAt,value
2023-05-25T00:01:16.551Z,75.48
2023-05-25T00:04:03.159Z,75.13
2023-05-25T00:06:47.770Z,76.60
2023-05-25T00:09:32.133Z,76.92
2023-05-25T00:12:16.570Z,77.78
2023-05-25T00:15:00.658Z,77.52
2023-05-25T00:17:44.478Z,76.54
2023-05-25T00:20:29.781Z,75.19
2023-05-25T00:23:13.664Z,75.85
2023-05-25T00:25:57.628Z,75.64
2023-05-25T00:28:41.475Z,75.23
2023-05-25T00:31:25.481Z,74.76
2023-05-25T00:34:09.406Z,74.56
2023-05-25T00:36:55.181Z,75.31
2023-05-25T00:39:39.022Z,75.44
2023-05-25T00:42:25.085Z,75.79
2023-05-25T00:45:09.707Z,76.47
2023-05-25T00:47:54.386Z,76.54
2023-05-25T00:50:42.022Z,75.45
2023-05-25T00:53:27.437Z,75.35
2023-05-25T00:56:20.332Z,74.85
2023-05-25T00:59:07.866Z,75.36
2023-05-25T01:01:54.171Z,76.11
2023-05-25T01:04:41.967Z,75.99
2023-05-25T01:07:27.964Z,75.90
2023-05-25T01:10:16.894Z,76.95
2023-05-25T01:13:03.280Z,76.47
2023-05-25T01:15:48.357Z,76.33
2023-05-25T01:18:33.732Z,76.65
2023-05-25T01:21:23.113Z,76.93
2023-05-25T01:24:12.317Z,77.09
2023-05-25T01:27:01.800Z,76.08
2023-05-25T01:29:48.211Z,77.26
2023-05-25T01:32:33.536Z,76.95
2023-05-25T01:35:19.960Z,75.63
2023-05-25T01:38:05.935Z,76.03
2023-05-25T01:40:49.835Z,75.96
2023-05-25T01:43:33.775Z,76.81
2023-05-25T01:46:24.708Z,77.98
2023-05-25T01:49:17.916Z,78.09
2023-05-25T01:52:09.199Z,77.46
2023-05-25T01:55:02.201Z,77.93
2023-05-25T01:57:52.820Z,79.08
2023-05-25T02:00:37.780Z,78.98
2023-05-25T02:03:22.725Z,78.49
2023-05-25T02:06:07.144Z,77.38
2023-05-25T02:08:52.513Z,77.58
2023-05-25T02:11:37.866Z,78.30
2023-05-25T02:14:22.138Z,78.81
2023-05-25T02:17:07.549Z,79.61
2023-05-25T02:19:53.287Z,78.63
2023-05-25T02:22:38.034Z,79.41
2023-05-25T02:25:24.342Z,78.75
2023-05-25T02:28:09.561Z,79.17
2023-05-25T02:30:53.531Z,79.39
2023-05-25T02:33:37.535Z,78.86
2023-05-25T02:36:21.880Z,78.42
2023-05-25T02:39:05.793Z,80.30
2023-05-25T02:41:49.713Z,81.63
2023-05-25T02:44:35.016Z,82.65
2023-05-25T02:47:19.908Z,82.43
2023-05-25T02:50:04.131Z,82.36
2023-05-25T02:52:52.118Z,82.68
2023-05-25T02:55:35.969Z,82.37
2023-05-25T02:58:20.107Z,82.44
2023-05-25T03:01:26.143Z,81.86
2023-05-25T03:04:12.120Z,84.26
2023-05-25T03:06:56.968Z,83.84
2023-05-25T03:09:41.234Z,83.58
2023-05-25T03:12:25.327Z,83.37
2023-05-25T03:15:13.253Z,82.26
2023-05-25T03:18:01.512Z,81.68
2023-05-25T03:20:50.334Z,81.03
2023-05-25T03:23:35.166Z,80.52
2023-05-25T03:26:23.064Z,80.31
2023-05-25T03:29:08.130Z,80.18
2023-05-25T03:31:52.434Z,80.02
2023-05-25T03:34:42.868Z,80.28
2023-05-25T03:37:30.310Z,79.89
2023-05-25T03:40:15.226Z,80.49
2023-05-25T03:42:59.365Z,79.37
2023-05-25T03:45:43.609Z,78.58
2023-05-25T03:48:28.144Z,79.05
2023-05-25T03:51:13.364Z,78.58
2023-05-25T03:53:57.249Z,78.07
2023-05-25T03:56:41.439Z,77.34
2023-05-25T03:59:25.670Z,77.05
2023-05-25T04:02:09.673Z,76.68
2023-05-25T04:04:53.895Z,75.31
2023-05-25T04:07:40.797Z,73.20
2023-05-25T04:10:24.777Z,72.19
2023-05-25T04:13:08.645Z,70.39
2023-05-25T04:15:52.719Z,69.24
2023-05-25T04:18:40.167Z,68.67
2023-05-25T04:21:24.502Z,67.63
2023-05-25T04:24:09.973Z,67.41
2023-05-25T04:26:54.277Z,65.94
2023-05-25T04:29:38.441Z,64.84
2023-05-25T04:32:22.454Z,65.05
2023-05-25T04:35:10.972Z,64.62
2023-05-25T04:38:03.116Z,65.61
2023-05-25T04:40:49.313Z,66.20
2023-05-25T04:43:33.926Z,66.13
2023-05-25T04:46:19.073Z,68.82
2023-05-25T04:49:03.012Z,66.39
2023-05-25T04:51:46.910Z,65.18
2023-05-25T05:07:06.312Z,59.78
2023-05-25T05:09:50.704Z,58.99
2023-05-25T05:12:34.946Z,58.98
2023-05-25T05:15:19.955Z,59.06
2023-05-25T05:18:06.567Z,61.27
2023-05-25T05:20:50.739Z,61.89
2023-05-25T05:23:36.815Z,62.64
2023-05-25T05:26:21.449Z,61.62
2023-05-25T05:29:06.457Z,61.01
2023-05-25T05:31:53.384Z,61.36
2023-05-25T05:34:37.684Z,60.88
2023-05-25T05:37:26.394Z,62.95
2023-05-25T05:40:12.925Z,62.81
2023-05-25T05:42:59.882Z,61.90
2023-05-25T05:45:43.967Z,60.63
2023-05-25T05:48:28.157Z,61.39
2023-05-25T05:51:12.761Z,61.93
2023-05-25T05:53:56.749Z,61.62
2023-05-25T05:56:42.570Z,60.73
2023-05-25T05:59:26.728Z,60.34
2023-05-25T06:02:10.787Z,60.64
2023-05-25T06:04:54.857Z,59.38
2023-05-25T06:07:39.771Z,59.53
2023-05-25T06:10:23.738Z,58.49
2023-05-25T06:13:09.569Z,59.30
2023-05-25T06:15:53.600Z,58.19
2023-05-25T06:18:40.826Z,55.88
2023-05-25T06:21:24.693Z,55.70
2023-05-25T06:24:09.375Z,55.56
2023-05-25T06:26:53.327Z,56.30
2023-05-25T06:29:38.960Z,57.34
2023-05-25T06:32:22.984Z,59.13
2023-05-25T06:35:08.071Z,56.97
2023-05-25T06:37:52.882Z,57.41
2023-05-25T06:40:37.244Z,56.42
2023-05-25T06:43:21.444Z,57.47
2023-05-25T06:46:26.820Z,58.60
2023-05-25T06:49:10.894Z,57.71
2023-05-25T06:51:54.827Z,57.54
2023-05-25T06:54:38.621Z,57.16
2023-05-25T06:57:22.809Z,56.35
2023-05-25T07:00:12.295Z,56.92
2023-05-25T07:02:57.667Z,55.78
2023-05-25T07:05:41.586Z,55.63
2023-05-25T07:08:25.516Z,54.76
2023-05-25T07:11:12.494Z,56.81
2023-05-25T07:13:56.421Z,57.18
2023-05-25T07:16:40.266Z,56.70
2023-05-25T07:19:25.545Z,55.92
2023-05-25T07:22:09.883Z,56.08
2023-05-25T07:24:53.884Z,54.23
2023-05-25T07:27:37.828Z,54.72
2023-05-25T07:30:22.159Z,52.07
2023-05-25T07:33:06.071Z,52.07
2023-05-25T07:35:51.908Z,51.72
2023-05-25T07:38:35.878Z,52.28
2023-05-25T07:41:19.880Z,53.28
2023-05-25T07:44:03.806Z,52.20
2023-05-25T07:46:47.692Z,52.05
2023-05-25T07:49:31.609Z,50.95
2023-05-25T07:52:16.849Z,51.95
2023-05-25T07:55:00.716Z,50.44
2023-05-25T07:57:44.597Z,49.10
2023-05-25T08:00:29.040Z,48.62
2023-05-25T08:03:13.812Z,47.08
2023-05-25T08:05:57.798Z,45.54
2023-05-25T08:08:45.019Z,46.72
2023-05-25T08:11:28.919Z,48.46
2023-05-25T08:14:12.773Z,48.83
2023-05-25T08:16:56.680Z,48.17
2023-05-25T08:19:40.706Z,46.43
2023-05-25T08:22:24.624Z,44.94
2023-05-25T08:25:11.299Z,44.77
2023-05-25T08:27:55.207Z,47.14
2023-05-25T08:30:39.065Z,46.74
2023-05-25T08:33:25.145Z,46.31
2023-05-25T08:36:10.307Z,46.47
2023-05-25T08:38:54.138Z,45.18
2023-05-25T08:41:46.142Z,45.88
2023-05-25T08:44:30.191Z,45.44
2023-05-25T08:47:15.772Z,46.09
2023-05-25T08:50:04.133Z,47.39
2023-05-25T08:52:53.004Z,46.98
2023-05-25T08:55:40.860Z,47.13
2023-05-25T08:58:32.192Z,47.83
2023-05-25T09:01:20.137Z,45.74
2023-05-25T09:04:05.068Z,45.89
2023-05-25T09:07:05.695Z,45.03
2023-05-25T09:09:53.289Z,43.90
2023-05-25T09:12:39.345Z,43.20
2023-05-25T09:15:24.870Z,43.28
2023-05-25T09:18:09.531Z,44.51
2023-05-25T09:20:55.497Z,47.22
2023-05-25T09:23:40.281Z,50.43
2023-05-25T09:26:24.299Z,52.60
2023-05-25T09:29:08.206Z,53.59
2023-05-25T09:31:53.753Z,57.73
2023-05-25T09:34:37.586Z,57.82
2023-05-25T09:37:22.017Z,59.63
2023-05-25T09:40:07.312Z,60.94
2023-05-25T09:42:52.075Z,62.55
2023-05-25T09:45:38.288Z,63.51
2023-05-25T09:48:24.471Z,65.48
2023-05-25T09:51:09.364Z,67.36
2023-05-25T09:53:53.441Z,65.04
2023-05-25T09:56:37.802Z,65.48
2023-05-25T09:59:23.975Z,64.87
2023-05-25T10:02:08.086Z,67.84
2023-05-25T10:04:53.532Z,68.59
2023-05-25T10:07:40.398Z,67.55
2023-05-25T10:10:25.233Z,67.02
2023-05-25T10:13:10.608Z,66.89
2023-05-25T10:15:55.379Z,67.61
2023-05-25T10:18:45.109Z,68.64
2023-05-25T10:21:31.728Z,70.15
2023-05-25T10:24:25.789Z,73.41
2023-05-25T10:27:26.267Z,72.29
2023-05-25T10:30:15.289Z,72.67
2023-05-25T10:32:59.536Z,74.97
2023-05-25T10:36:01.380Z,78.33
2023-05-25T10:38:48.734Z,82.28
2023-05-25T10:41:32.690Z,82.62
2023-05-25T10:44:17.600Z,82.90
2023-05-25T10:47:01.805Z,82.99
2023-05-25T10:49:57.878Z,84.71
2023-05-25T10:52:42.168Z,84.41
2023-05-25T10:55:31.888Z,86.61
2023-05-25T10:58:17.673Z,85.86
2023-05-25T11:01:03.761Z,86.82
2023-05-25T11:03:58.847Z,87.47
2023-05-25T11:07:16.460Z,86.71
2023-05-25T11:10:00.525Z,85.87
2023-05-25T11:12:47.709Z,83.30
2023-05-25T11:15:31.846Z,80.46
2023-05-25T11:18:16.386Z,79.24
2023-05-25T11:21:13.369Z,74.46
2023-05-25T11:23:58.958Z,75.92
2023-05-25T11:26:59.933Z,74.92
2023-05-25T11:29:45.280Z,74.16
2023-05-25T11:32:29.381Z,76.65
2023-05-25T11:35:13.580Z,76.60
2023-05-25T11:37:57.386Z,76.73
2023-05-25T11:40:41.448Z,76.66
2023-05-25T11:43:26.944Z,77.27
2023-05-25T11:46:12.717Z,78.66
2023-05-25T11:48:56.959Z,78.42
2023-05-25T11:51:40.891Z,77.86
2023-05-25T11:54:25.818Z,78.99
2023-05-25T11:57:16.326Z,79.35
2023-05-25T12:00:06.869Z,79.50
2023-05-25T12:02:53.288Z,76.97
2023-05-25T12:05:41.414Z,78.18
2023-05-25T12:08:33.710Z,78.55
2023-05-25T12:11:17.857Z,78.76
2023-05-25T12:14:02.692Z,78.07
2023-05-25T12:16:47.007Z,76.25
2023-05-25T12:19:33.177Z,72.88
2023-05-25T12:22:17.664Z,71.63
2023-05-25T12:25:01.757Z,71.66
2023-05-25T12:27:47.270Z,70.93
2023-05-25T12:30:31.244Z,68.61
2023-05-25T12:33:16.117Z,66.55
2023-05-25T12:36:01.537Z,68.16
2023-05-25T12:39:00.162Z,66.59
2023-05-25T12:41:49.439Z,66.96
2023-05-25T12:44:35.757Z,66.68
2023-05-25T12:47:22.643Z,68.16
2023-05-25T12:50:13.957Z,69.34
2023-05-25T12:53:04.189Z,70.77
2023-05-25T12:55:48.354Z,72.80
2023-05-25T12:58:32.370Z,72.88
2023-05-25T13:01:16.741Z,73.82
2023-05-25T13:04:00.706Z,74.18
2023-05-25T13:06:44.473Z,70.12
2023-05-25T13:09:30.036Z,70.56
2023-05-25T13:12:13.908Z,71.38
2023-05-25T13:14:57.852Z,70.87
2023-05-25T13:17:43.957Z,71.96
2023-05-25T13:20:29.845Z,72.97
2023-05-25T13:23:13.944Z,73.93
2023-05-25T13:25:59.512Z,73.62
2023-05-25T13:28:43.354Z,73.48
2023-05-25T13:31:27.441Z,73.30
2023-05-25T13:34:11.789Z,72.11
2023-05-25T13:36:55.677Z,72.06
2023-05-25T13:39:39.629Z,73.49
2023-05-25T13:42:25.166Z,71.34
2023-05-25T13:45:10.267Z,72.23
2023-05-25T13:47:54.415Z,68.27
2023-05-25T13:50:38.432Z,67.24
2023-05-25T13:53:22.353Z,66.00
2023-05-25T13:56:06.972Z,68.77
2023-05-25T13:58:52.224Z,65.89
2023-05-25T14:01:36.417Z,64.63
2023-05-25T14:04:20.350Z,65.37
2023-05-25T14:07:04.532Z,64.67
2023-05-25T14:09:48.590Z,63.66
2023-05-25T14:12:32.990Z,61.45
2023-05-25T14:15:18.726Z,60.91
2023-05-25T14:18:02.815Z,60.79
2023-05-25T14:20:46.961Z,61.82
2023-05-25T14:23:31.361Z,62.34
2023-05-25T14:26:15.261Z,61.31
2023-05-25T14:28:59.118Z,59.11
2023-05-25T14:31:44.324Z,60.49
2023-05-25T14:34:28.803Z,61.68
2023-05-25T14:37:13.299Z,61.62
2023-05-25T14:39:57.238Z,59.59
2023-05-25T14:42:41.245Z,57.38
2023-05-25T14:45:25.005Z,57.62
2023-05-25T14:51:00.300Z,59.28
2023-05-25T14:53:44.168Z,59.12
2023-05-25T14:56:28.583Z,56.72
2023-05-25T14:59:12.554Z,55.88
2023-05-25T15:01:56.483Z,57.00
2023-05-25T15:04:41.862Z,54.53
2023-05-25T15:07:25.781Z,56.92
2023-05-25T15:10:10.582Z,55.24
2023-05-25T15:12:54.378Z,54.48
2023-05-25T15:15:38.307Z,57.44
2023-05-25T15:18:22.422Z,56.18
2023-05-25T15:21:07.877Z,55.73
2023-05-25T15:23:51.732Z,55.87
2023-05-25T15:26:35.474Z,54.51
2023-05-25T15:29:19.357Z,54.63
2023-05-25T15:32:03.254Z,54.51
2023-05-25T15:34:47.521Z,54.02
2023-05-25T15:37:33.019Z,55.30
2023-05-25T15:40:16.998Z,55.93
2023-05-25T15:43:00.742Z,55.26
2023-05-25T15:45:45.013Z,54.78
2023-05-25T15:48:29.048Z,54.33
2023-05-25T15:51:12.968Z,53.99
2023-05-25T15:53:58.251Z,52.55
2023-05-25T15:56:42.215Z,52.17
2023-05-25T15:59:26.104Z,52.78
2023-05-25T16:02:09.963Z,54.12
2023-05-25T16:04:53.850Z,54.11
2023-05-25T16:07:37.721Z,55.03
2023-05-25T16:10:22.923Z,56.30
2023-05-25T16:13:06.882Z,56.17
2023-05-25T16:15:50.831Z,54.45
2023-05-25T16:18:34.782Z,54.66
2023-05-25T16:21:18.792Z,56.08
2023-05-25T16:24:02.818Z,57.94
2023-05-25T16:26:48.274Z,58.87
2023-05-25T16:29:32.332Z,58.57
2023-05-25T16:32:16.555Z,58.28
2023-05-25T16:35:00.651Z,58.18
2023-05-25T16:37:45.984Z,58.58
2023-05-25T16:40:30.309Z,60.27
2023-05-25T16:43:15.694Z,61.26
2023-05-25T16:45:59.692Z,61.55
2023-05-25T16:48:43.582Z,62.45
2023-05-25T16:51:27.432Z,62.44
2023-05-25T16:54:11.457Z,63.26
2023-05-25T16:56:55.382Z,62.46
2023-05-25T16:59:41.057Z,63.13
2023-05-25T17:02:25.241Z,62.55
2023-05-25T17:05:09.956Z,63.25
2023-05-25T17:07:53.938Z,64.16
2023-05-25T17:10:37.977Z,64.36
2023-05-25T17:13:22.205Z,64.89
2023-05-25T17:16:07.660Z,66.01
2023-05-25T17:18:51.687Z,66.62
2023-05-25T17:21:35.906Z,66.46
2023-05-25T17:24:19.809Z,64.91
2023-05-25T17:27:03.831Z,66.26
2023-05-25T17:29:47.770Z,68.32
2023-05-25T17:32:33.090Z,68.14
2023-05-25T17:35:17.048Z,68.03
2023-05-25T17:38:00.898Z,69.22
2023-05-25T17:40:45.019Z,69.06
2023-05-25T17:43:28.863Z,68.68
2023-05-25T17:46:13.045Z,69.35
2023-05-25T17:48:58.488Z,69.73
2023-05-25T17:51:42.411Z,70.22
2023-05-25T17:54:27.462Z,70.72
2023-05-25T17:57:11.406Z,72.12
2023-05-25T17:59:55.318Z,72.20
2023-05-25T18:02:39.397Z,71.62
2023-05-25T18:05:24.864Z,74.81
2023-05-25T18:08:08.748Z,74.21
2023-05-25T18:10:53.051Z,74.86
2023-05-25T18:13:37.003Z,76.22
2023-05-25T18:16:20.914Z,76.38
2023-05-25T18:19:04.893Z,77.42
2023-05-25T18:21:50.194Z,77.79
2023-05-25T18:24:34.155Z,78.16
2023-05-25T18:27:18.328Z,77.08
2023-05-25T18:30:02.309Z,77.24
2023-05-25T18:32:49.572Z,76.40
2023-05-25T18:35:33.866Z,75.34
2023-05-25T18:38:19.460Z,76.34
2023-05-25T18:41:03.724Z,76.55
2023-05-25T18:43:49.289Z,76.03
2023-05-25T18:46:33.477Z,77.05
2023-05-25T18:49:17.429Z,78.40
2023-05-25T18:52:01.613Z,79.24
2023-05-25T18:54:48.765Z,79.05
2023-05-25T18:57:33.175Z,79.21
2023-05-25T19:00:17.920Z,80.19
2023-05-25T19:03:02.060Z,80.09
2023-05-25T19:05:46.303Z,79.92
2023-05-25T19:08:30.589Z,80.10
2023-05-25T19:11:16.007Z,79.09
2023-05-25T19:13:59.903Z,78.74
2023-05-25T19:16:44.468Z,80.26
2023-05-25T19:19:29.588Z,78.74
2023-05-25T19:22:13.648Z,78.89
2023-05-25T19:25:01.111Z,79.44
2023-05-25T19:27:49.832Z,79.90
2023-05-25T19:30:34.176Z,79.17
2023-05-25T19:33:18.506Z,80.17
2023-05-25T19:36:02.694Z,79.16
2023-05-25T19:38:47.248Z,78.14
2023-05-25T19:41:31.260Z,77.58
2023-05-25T19:44:16.654Z,76.46
2023-05-25T19:47:01.038Z,77.24
2023-05-25T19:49:44.885Z,76.14
2023-05-25T19:52:28.889Z,76.30
2023-05-25T19:55:12.966Z,76.19
2023-05-25T19:57:56.889Z,75.25
2023-05-25T20:00:42.168Z,76.24
2023-05-25T20:03:26.164Z,75.47
2023-05-25T20:06:10.269Z,75.57
2023-05-25T20:08:54.215Z,76.59
2023-05-25T20:11:38.161Z,77.70
2023-05-25T20:14:22.221Z,78.14
2023-05-25T20:17:07.517Z,78.56
2023-05-25T20:19:51.551Z,80.28
2023-05-25T20:22:35.546Z,80.66
2023-05-25T20:25:19.498Z,81.71
2023-05-25T20:28:04.046Z,81.51
2023-05-25T20:30:48.170Z,82.23
2023-05-25T20:33:33.833Z,81.88
2023-05-25T20:36:18.541Z,81.22
2023-05-25T20:39:03.310Z,81.79
2023-05-25T20:41:47.749Z,82.73
2023-05-25T20:44:32.207Z,83.27
2023-05-25T20:47:16.330Z,83.21
2023-05-25T20:50:01.940Z,83.02
2023-05-25T20:52:48.244Z,81.67
2023-05-25T20:55:32.540Z,82.08
2023-05-25T20:58:16.785Z,82.46
2023-05-25T21:01:01.096Z,82.24
2023-05-25T21:03:45.418Z,81.52
2023-05-25T21:06:32.444Z,82.60
2023-05-25T21:09:16.572Z,81.43
2023-05-25T21:12:01.724Z,81.40
2023-05-25T21:14:45.834Z,81.21
2023-05-25T21:17:30.095Z,81.35
2023-05-25T21:20:14.459Z,80.93
2023-05-25T21:23:00.730Z,81.01
2023-05-25T21:25:45.319Z,81.15
2023-05-25T21:28:29.525Z,82.31
2023-05-25T21:31:13.447Z,80.83
2023-05-25T21:33:59.311Z,82.41
2023-05-25T21:36:43.970Z,82.99
2023-05-25T21:39:29.179Z,81.69
2023-05-25T21:42:13.163Z,82.12
2023-05-25T21:44:57.032Z,82.17
2023-05-25T21:47:40.914Z,83.06
2023-05-25T21:50:24.725Z,82.87
2023-05-25T21:53:08.672Z,82.47
2023-05-25T21:55:53.987Z,82.62
2023-05-25T21:58:37.933Z,84.09
2023-05-25T22:01:22.050Z,83.46
2023-05-25T22:04:06.068Z,83.91
2023-05-25T22:06:49.924Z,83.63
2023-05-25T22:09:33.879Z,84.25
2023-05-25T22:12:20.859Z,84.64
2023-05-25T22:15:05.368Z,84.78
2023-05-25T22:17:49.679Z,84.46
2023-05-25T22:20:33.867Z,85.16
2023-05-25T22:23:17.736Z,84.41
2023-05-25T22:26:01.567Z,85.03
2023-05-25T22:28:46.910Z,84.49
2023-05-25T22:31:31.034Z,85.09
2023-05-25T22:34:14.876Z,83.96
2023-05-25T22:36:58.741Z,84.48
2023-05-25T22:39:42.717Z,83.77
2023-05-25T22:42:26.682Z,83.06
2023-05-25T22:45:12.609Z,84.40
2023-05-25T22:47:56.481Z,84.82
2023-05-25T22:50:40.370Z,86.27
2023-05-25T22:53:24.318Z,86.08
2023-05-25T22:56:08.576Z,86.49
2023-05-25T22:58:52.414Z,87.13
2023-05-25T23:01:37.748Z,89.86
2023-05-25T23:04:21.753Z,88.99
2023-05-25T23:07:06.080Z,89.01
2023-05-25T23:09:49.965Z,90.39
2023-05-25T23:12:33.830Z,89.46
2023-05-25T23:15:18.581Z,90.79
2023-05-25T23:18:03.910Z,89.67
2023-05-25T23:20:47.852Z,89.60
2023-05-25T23:23:31.721Z,89.19
2023-05-25T23:26:15.609Z,89.20
2023-05-25T23:28:59.465Z,88.77
2023-05-25T23:31:43.529Z,88.33
2023-05-25T23:34:29.090Z,87.22
2023-05-25T23:37:13.076Z,87.00
2023-05-25T23:39:56.936Z,86.35
2023-05-25T23:42:44.388Z,85.57
2023-05-25T23:45:28.368Z,84.37
2023-05-25T23:48:12.346Z,84.17
2023-05-25T23:50:57.676Z,83.49
2023-05-25T23:53:41.758Z,83.79
2023-05-25T23:56:27.947Z,84.64
2023-05-25T23:59:15.160Z,84.67
